Time;durP1;ratioP1;P1;durP2;ratioP2;P2;SDS_P1;SDS_P2;PMS_P1;PMS_P2;Temp;Humidity;BMP_temperature;BMP_pressure;BME280_temperature;BME280_humidity;BME280_pressure;Samples;Min_cycle;Max_cycle;Signal;HPM_P1;HPM_P2
2022/08/30 00:01:04;;;;;;;3.57;3.37;;;16.40;99.90;;;;;;5113290;28;20533;-59
2022/08/30 00:03:32;;;;;;;3.80;3.23;;;16.40;99.90;;;;;;5113292;28;20543;-59
2022/08/30 00:05:59;;;;;;;4.13;3.80;;;16.50;99.90;;;;;;5116668;28;20503;-59
2022/08/30 00:08:26;;;;;;;4.33;4.00;;;16.60;99.90;;;;;;5117670;28;20882;-59
2022/08/30 00:10:53;;;;;;;5.40;3.23;;;16.60;99.90;;;;;;5117548;28;20518;-59
2022/08/30 00:13:20;;;;;;;10.13;4.30;;;16.70;99.90;;;;;;5117465;28;20445;-59
2022/08/30 00:15:47;;;;;;;4.57;4.27;;;16.60;99.90;;;;;;5117299;28;20445;-59
2022/08/30 00:18:17;;;;;;;4.13;3.63;;;16.20;99.90;;;;;;5117251;28;20449;-59
2022/08/30 00:20:45;;;;;;;4.03;3.73;;;16.40;99.90;;;;;;5117100;28;20446;-59
2022/08/30 00:23:12;;;;;;;3.70;3.30;;;16.50;99.90;;;;;;5117364;28;20843;-59
2022/08/30 00:25:38;;;;;;;3.10;2.87;;;16.60;99.90;;;;;;5117253;28;20446;-59
2022/08/30 00:28:05;;;;;;;3.27;3.03;;;16.60;99.90;;;;;;5117016;28;20927;-59
2022/08/30 00:30:32;;;;;;;3.57;3.33;;;16.70;99.90;;;;;;5117107;28;20445;-59
2022/08/30 00:32:59;;;;;;;4.27;2.90;;;16.60;99.90;;;;;;5116993;28;20483;-59
2022/08/30 00:35:28;;;;;;;2.93;2.73;;;16.60;99.90;;;;;;5116843;28;20456;-59
2022/08/30 00:37:55;;;;;;;3.03;2.77;;;16.70;99.90;;;;;;5117108;28;20441;-59
2022/08/30 00:40:22;;;;;;;3.13;2.80;;;16.70;99.90;;;;;;5117191;28;20488;-59
2022/08/30 00:42:48;;;;;;;2.90;2.60;;;16.80;99.90;;;;;;5116918;28;20449;-59
2022/08/30 00:45:18;;;;;;;3.00;2.53;;;16.80;99.90;;;;;;5116773;28;20808;-59
2022/08/30 00:47:45;;;;;;;3.10;2.90;;;16.80;99.90;;;;;;5116564;28;20557;-59
2022/08/30 00:50:13;;;;;;;2.70;2.50;;;16.80;99.90;;;;;;5116651;28;20970;-59
2022/08/30 00:52:44;;;;;;;3.10;2.90;;;16.90;99.90;;;;;;5116616;28;20963;-59
2022/08/30 00:55:13;;;;;;;2.30;2.10;;;16.90;99.90;;;;;;5116921;28;20441;-59
2022/08/30 00:57:41;;;;;;;4.07;2.50;;;16.80;99.90;;;;;;5116585;28;20441;-59
2022/08/30 01:00:09;;;;;;;2.80;2.60;;;16.50;99.90;;;;;;5116367;28;20484;-59
2022/08/30 01:02:36;;;;;;;2.77;2.67;;;16.50;99.90;;;;;;5116359;28;20445;-59
2022/08/30 01:05:07;;;;;;;2.30;2.20;;;16.40;99.90;;;;;;5116456;28;20445;-59
2022/08/30 01:07:34;;;;;;;2.80;2.60;;;16.20;99.90;;;;;;5116265;28;20975;-59
2022/08/30 01:10:03;;;;;;;5.50;3.00;;;16.00;99.90;;;;;;5116376;28;20890;-59
2022/08/30 01:12:30;;;;;;;2.90;2.27;;;15.70;99.90;;;;;;5116227;28;20951;-59
2022/08/30 01:14:57;;;;;;;3.00;2.80;;;15.80;99.90;;;;;;5116078;28;20445;-59
2022/08/30 01:17:25;;;;;;;2.97;2.87;;;16.00;99.90;;;;;;5115200;28;20818;-59
2022/08/30 01:19:55;;;;;;;2.50;2.30;;;16.10;99.90;;;;;;5116232;28;21163;-59
2022/08/30 01:22:30;;;;;;;3.47;2.63;;;16.10;99.90;;;;;;5116185;28;20533;-59
2022/08/30 01:24:59;;;;;;;3.07;2.80;;;16.10;99.90;;;;;;5116018;28;20453;-59
2022/08/30 01:27:28;;;;;;;4.30;2.40;;;16.10;99.90;;;;;;5115893;28;20519;-59
2022/08/30 01:29:56;;;;;;;3.13;3.00;;;16.10;99.90;;;;;;5116099;28;20441;-59
2022/08/30 01:32:25;;;;;;;2.77;2.63;;;16.10;99.90;;;;;;5115975;28;20442;-60
2022/08/30 01:34:52;;;;;;;2.93;2.70;;;16.10;99.90;;;;;;5115851;28;20450;-59
2022/08/30 01:37:23;;;;;;;4.37;2.83;;;15.80;99.90;;;;;;5115845;28;20786;-60
2022/08/30 01:39:49;;;;;;;2.93;2.63;;;15.80;99.90;;;;;;5115708;28;20470;-59
2022/08/30 01:42:17;;;;;;;3.00;2.80;;;15.80;99.90;;;;;;5116028;28;20449;-59
2022/08/30 01:44:44;;;;;;;3.70;2.60;;;15.90;99.90;;;;;;5115725;28;20757;-59
2022/08/30 01:47:11;;;;;;;4.53;2.60;;;15.90;99.90;;;;;;5115620;28;20512;-59
2022/08/30 01:49:38;;;;;;;2.80;2.50;;;15.80;99.90;;;;;;5115674;28;20449;-59
2022/08/30 01:52:05;;;;;;;2.50;2.30;;;15.60;99.90;;;;;;5115560;28;20835;-59
2022/08/30 01:54:35;;;;;;;3.03;2.83;;;15.50;99.90;;;;;;5115362;28;20453;-59
2022/08/30 01:57:02;;;;;;;2.47;2.37;;;15.50;99.90;;;;;;5115564;28;20448;-59
2022/08/30 01:59:30;;;;;;;2.93;2.73;;;15.50;99.90;;;;;;5115500;28;20983;-59
2022/08/30 02:01:56;;;;;;;2.93;2.70;;;15.60;99.90;;;;;;5115303;28;20446;-59
2022/08/30 02:04:25;;;;;;;2.80;2.60;;;15.40;99.90;;;;;;5115221;28;20452;-59
2022/08/30 02:06:51;;;;;;;2.20;2.10;;;15.40;99.90;;;;;;5115070;28;20488;-59
2022/08/30 02:09:18;;;;;;;2.57;2.47;;;15.30;99.90;;;;;;5115324;28;20489;-59
2022/08/30 02:11:46;;;;;;;2.67;2.57;;;15.20;99.90;;;;;;5115184;28;20536;-59
2022/08/30 02:14:14;;;;;;;2.70;2.60;;;15.20;99.90;;;;;;5115048;28;20789;-59
2022/08/30 02:16:42;;;;;;;2.50;2.40;;;15.10;99.90;;;;;;5115124;28;20446;-59
2022/08/30 02:19:09;;;;;;;2.90;2.70;;;15.20;99.90;;;;;;5114945;28;20449;-59
2022/08/30 02:21:35;;;;;;;4.70;2.33;;;15.30;99.90;;;;;;5115055;28;20537;-59
2022/08/30 02:24:02;;;;;;;2.63;2.50;;;15.40;99.90;;;;;;5115028;28;20540;-59
2022/08/30 02:26:28;;;;;;;5.97;2.13;;;15.50;99.90;;;;;;5114923;28;20452;-59
2022/08/30 02:28:55;;;;;;;2.50;2.30;;;15.60;99.90;;;;;;5114660;28;20452;-59
2022/08/30 02:31:22;;;;;;;2.50;2.30;;;15.70;99.90;;;;;;5114757;28;20460;-59
2022/08/30 02:33:52;;;;;;;2.50;2.40;;;15.80;99.90;;;;;;5114652;28;20445;-59
2022/08/30 02:36:20;;;;;;;2.60;2.40;;;15.60;99.90;;;;;;5114606;28;20962;-59
2022/08/30 02:38:47;;;;;;;2.77;2.57;;;15.30;99.90;;;;;;5114673;28;20446;-59
2022/08/30 02:41:13;;;;;;;2.77;2.57;;;15.00;99.90;;;;;;5114567;28;20481;-59
2022/08/30 02:43:40;;;;;;;3.33;3.03;;;15.00;99.90;;;;;;5114586;28;20540;-59
2022/08/30 02:46:08;;;;;;;3.10;2.90;;;15.10;99.90;;;;;;5114425;28;20445;-60
2022/08/30 02:48:34;;;;;;;3.67;3.10;;;15.20;99.90;;;;;;5114151;28;20503;-60
2022/08/30 02:51:07;;;;;;;3.40;3.20;;;15.10;99.90;;;;;;5114541;28;20536;-59
2022/08/30 02:53:33;;;;;;;2.83;2.70;;;14.90;99.90;;;;;;5114251;28;20948;-59
2022/08/30 02:56:00;;;;;;;2.93;2.73;;;14.70;99.90;;;;;;5114569;28;20537;-59
2022/08/30 02:58:26;;;;;;;2.63;2.43;;;14.80;99.90;;;;;;5114128;28;20482;-59
2022/08/30 03:00:53;;;;;;;2.70;2.60;;;15.00;99.90;;;;;;5114280;28;20564;-59
2022/08/30 03:03:20;;;;;;;2.63;2.50;;;15.10;99.90;;;;;;5114064;28;20985;-60
2022/08/30 03:05:46;;;;;;;2.97;2.70;;;15.10;99.90;;;;;;5114135;28;20450;-60
2022/08/30 03:08:14;;;;;;;3.80;3.00;;;15.00;99.90;;;;;;5114098;28;20452;-60
2022/08/30 03:10:41;;;;;;;2.87;2.77;;;14.70;99.90;;;;;;5114111;28;20449;-59
2022/08/30 03:13:07;;;;;;;3.40;3.20;;;14.80;99.90;;;;;;5113928;28;20456;-59
2022/08/30 03:15:34;;;;;;;2.80;2.57;;;14.80;99.90;;;;;;5113696;28;20453;-60
2022/08/30 03:18:01;;;;;;;3.10;2.90;;;14.80;99.90;;;;;;5114105;28;20456;-59
2022/08/30 03:20:28;;;;;;;3.10;2.90;;;14.90;99.90;;;;;;5114046;28;20926;-60
2022/08/30 03:22:55;;;;;;;2.80;2.60;;;15.00;99.90;;;;;;5114179;28;20460;-60
2022/08/30 03:25:23;;;;;;;2.40;2.20;;;15.20;99.90;;;;;;5113760;28;20445;-59
2022/08/30 03:27:50;;;;;;;7.13;2.77;;;15.30;99.90;;;;;;5113791;28;20960;-59
2022/08/30 03:30:18;;;;;;;2.70;2.50;;;15.30;99.90;;;;;;5113545;28;20453;-59
2022/08/30 03:32:45;;;;;;;3.83;2.60;;;15.30;99.90;;;;;;5113704;28;20441;-60
2022/08/30 03:35:12;;;;;;;2.40;2.30;;;15.20;99.90;;;;;;5113625;28;20441;-60
2022/08/30 03:37:39;;;;;;;2.67;2.57;;;15.00;99.90;;;;;;5113576;28;20540;-60
2022/08/30 03:40:08;;;;;;;3.00;2.60;;;14.90;99.90;;;;;;5112845;28;20477;-60
2022/08/30 03:42:36;;;;;;;3.13;2.93;;;14.70;99.90;;;;;;5113590;28;20452;-60
2022/08/30 03:45:05;;;;;;;3.00;2.40;;;14.60;99.90;;;;;;5113350;28;20446;-60
2022/08/30 03:47:31;;;;;;;2.77;2.57;;;14.60;99.90;;;;;;5113307;28;20534;-60
2022/08/30 03:49:58;;;;;;;2.90;2.70;;;14.60;99.90;;;;;;5113469;28;20553;-60
2022/08/30 03:52:24;;;;;;;3.10;2.90;;;14.70;99.90;;;;;;5113358;28;20484;-60
2022/08/30 03:54:51;;;;;;;4.00;3.70;;;14.80;99.90;;;;;;5113252;28;20459;-60
2022/08/30 03:57:17;;;;;;;4.50;3.00;;;14.90;99.90;;;;;;5113176;28;20540;-60
2022/08/30 03:59:45;;;;;;;4.13;2.67;;;15.00;99.90;;;;;;5113136;28;20457;-60
2022/08/30 04:02:12;;;;;;;3.03;2.77;;;15.00;99.90;;;;;;5113453;28;20826;-60
2022/08/30 04:04:38;;;;;;;4.43;2.70;;;15.10;99.90;;;;;;5113257;28;20540;-60
2022/08/30 04:07:05;;;;;;;3.40;3.10;;;15.10;99.90;;;;;;5112963;28;20454;-60
2022/08/30 04:09:32;;;;;;;3.47;3.27;;;14.90;99.90;;;;;;5113187;28;20944;-60
2022/08/30 04:11:59;;;;;;;3.93;2.93;;;15.00;99.90;;;;;;5112995;28;20790;-60
2022/08/30 04:14:25;;;;;;;3.50;3.20;;;15.10;99.90;;;;;;5113205;28;20456;-60
2022/08/30 04:16:53;;;;;;;6.10;3.33;;;15.10;99.90;;;;;;5113210;28;20560;-60
2022/08/30 04:19:19;;;;;;;3.40;3.20;;;15.10;99.90;;;;;;5113118;28;20442;-60
2022/08/30 04:21:46;;;;;;;4.67;3.27;;;14.70;99.90;;;;;;5113023;28;20481;-60
2022/08/30 04:24:12;;;;;;;6.83;4.23;;;14.50;99.90;;;;;;5112962;28;20445;-60
2022/08/30 04:26:39;;;;;;;5.30;4.80;;;14.50;99.90;;;;;;5112915;28;20453;-60
2022/08/30 04:29:05;;;;;;;4.30;3.90;;;14.50;99.90;;;;;;5113184;28;20953;-60
2022/08/30 04:31:32;;;;;;;4.23;3.93;;;14.70;99.90;;;;;;5113075;28;20446;-60
2022/08/30 04:34:00;;;;;;;4.50;4.20;;;14.70;99.90;;;;;;5113093;28;20496;-60
2022/08/30 04:36:26;;;;;;;3.80;3.50;;;14.70;99.90;;;;;;5112833;28;20446;-59
2022/08/30 04:38:52;;;;;;;4.23;3.77;;;14.50;99.90;;;;;;5112731;28;20445;-60
2022/08/30 04:41:21;;;;;;;4.00;3.80;;;14.40;99.90;;;;;;5112990;28;20516;-59
2022/08/30 04:43:49;;;;;;;4.20;3.77;;;14.30;99.90;;;;;;5113014;28;20455;-59
2022/08/30 04:46:16;;;;;;;5.87;4.23;;;14.30;99.90;;;;;;5112899;28;20498;-59
2022/08/30 04:48:42;;;;;;;3.87;3.57;;;14.30;99.90;;;;;;5112761;28;20530;-60
2022/08/30 04:51:13;;;;;;;5.43;3.83;;;14.20;99.90;;;;;;5114792;28;20481;-60
2022/08/30 04:53:40;;;;;;;4.90;4.03;;;14.40;99.90;;;;;;5116466;28;20453;-60
2022/08/30 04:56:08;;;;;;;5.50;4.40;;;14.60;99.90;;;;;;5116689;28;20838;-59
2022/08/30 04:58:35;;;;;;;5.63;5.03;;;14.70;99.90;;;;;;5116332;28;20449;-59
2022/08/30 05:01:01;;;;;;;4.40;4.00;;;14.80;99.90;;;;;;5116339;28;20558;-60
2022/08/30 05:03:28;;;;;;;4.63;4.30;;;14.90;99.90;;;;;;5116360;28;20492;-60
2022/08/30 05:05:54;;;;;;;5.23;4.83;;;15.00;99.90;;;;;;5116232;28;20951;-60
2022/08/30 05:08:23;;;;;;;5.07;4.57;;;14.90;99.90;;;;;;5116134;28;20453;-60
2022/08/30 05:10:52;;;;;;;4.00;3.70;;;14.80;99.90;;;;;;5116210;28;20452;-60
2022/08/30 05:13:21;;;;;;;7.63;5.30;;;14.80;99.90;;;;;;5116222;28;20480;-60
2022/08/30 05:15:48;;;;;;;5.20;4.53;;;14.70;99.90;;;;;;5116150;28;20454;-59
2022/08/30 05:18:14;;;;;;;5.77;4.50;;;14.80;99.90;;;;;;5116063;28;20452;-60
2022/08/30 05:20:42;;;;;;;6.03;5.40;;;14.90;99.90;;;;;;5115954;28;20854;-60
2022/08/30 05:23:09;;;;;;;5.37;4.93;;;15.00;99.90;;;;;;5116151;28;20542;-60
2022/08/30 05:25:40;;;;;;;5.77;5.37;;;15.00;99.90;;;;;;5115978;28;20449;-60
2022/08/30 05:28:06;;;;;;;4.83;4.43;;;14.80;99.90;;;;;;5116094;28;20445;-60
2022/08/30 05:30:35;;;;;;;12.43;5.40;;;15.00;99.90;;;;;;5115864;28;20449;-60
2022/08/30 05:33:02;;;;;;;6.40;5.40;;;15.10;99.90;;;;;;5115819;28;20511;-59
2022/08/30 05:35:29;;;;;;;8.67;5.53;;;15.00;99.90;;;;;;5115405;28;20446;-60
2022/08/30 05:37:56;;;;;;;6.10;5.50;;;15.20;99.90;;;;;;5115780;28;20886;-60
2022/08/30 05:40:22;;;;;;;5.50;5.10;;;15.20;99.90;;;;;;5115742;28;20619;-60
2022/08/30 05:42:50;;;;;;;6.07;5.67;;;15.20;99.90;;;;;;5115731;28;20470;-60
2022/08/30 05:45:17;;;;;;;5.90;5.40;;;15.30;99.90;;;;;;5115480;28;20541;-59
2022/08/30 05:47:43;;;;;;;6.53;5.30;;;15.30;99.90;;;;;;5115198;28;20476;-60
2022/08/30 05:50:10;;;;;;;6.03;5.57;;;15.30;99.90;;;;;;5115597;28;20801;-59
2022/08/30 05:52:38;;;;;;;9.77;5.60;;;15.30;99.90;;;;;;5115274;28;20448;-59
2022/08/30 05:55:06;;;;;;;9.47;6.73;;;15.30;99.90;;;;;;5115649;28;20544;-60
2022/08/30 05:57:33;;;;;;;7.20;6.10;;;15.40;99.90;;;;;;5115268;28;20528;-60
2022/08/30 06:00:04;;;;;;;7.13;6.53;;;15.30;99.90;;;;;;5115184;28;20587;-59
2022/08/30 06:02:31;;;;;;;8.37;6.50;;;15.30;99.90;;;;;;5114864;28;20536;-59
2022/08/30 06:04:58;;;;;;;7.23;6.73;;;15.50;99.90;;;;;;5115271;28;20445;-59
2022/08/30 06:07:24;;;;;;;7.57;6.87;;;15.50;99.90;;;;;;5115473;28;20452;-60
2022/08/30 06:09:50;;;;;;;8.43;6.57;;;15.70;99.90;;;;;;5115040;28;20446;-59
2022/08/30 06:12:17;;;;;;;6.80;6.30;;;15.80;99.90;;;;;;5115155;28;20511;-60
2022/08/30 06:14:44;;;;;;;9.53;8.17;;;15.80;99.90;;;;;;5114770;28;20804;-60
2022/08/30 06:17:11;;;;;;;9.83;8.40;;;15.80;99.90;;;;;;5115046;28;20449;-60
2022/08/30 06:19:38;;;;;;;8.80;8.00;;;16.00;99.90;;;;;;5114932;28;20445;-60
2022/08/30 06:22:05;;;;;;;10.60;8.77;;;16.20;99.90;;;;;;5114894;28;20599;-59
2022/08/30 06:24:31;;;;;;;10.37;9.40;;;16.30;99.90;;;;;;5114809;28;20987;-60
2022/08/30 06:26:58;;;;;;;9.93;9.03;;;16.30;99.90;;;;;;5114821;28;20452;-60
2022/08/30 06:29:24;;;;;;;9.37;8.50;;;16.40;99.90;;;;;;5114637;28;20445;-60
2022/08/30 06:31:51;;;;;;;10.23;9.23;;;16.50;99.90;;;;;;5114890;28;20796;-59
2022/08/30 06:34:19;;;;;;;10.30;9.30;;;16.50;99.90;;;;;;5114611;28;20446;-60
2022/08/30 06:36:45;;;;;;;11.00;9.93;;;16.50;99.90;;;;;;5114591;28;20449;-60
2022/08/30 06:39:12;;;;;;;10.60;9.60;;;16.60;99.90;;;;;;5114417;28;20873;-59
2022/08/30 06:41:39;;;;;;;11.80;10.57;;;16.70;99.90;;;;;;5114178;28;20477;-60
2022/08/30 06:44:06;;;;;;;12.80;10.17;;;16.90;99.90;;;;;;5114023;28;20911;-59
2022/08/30 06:46:35;;;;;;;13.20;7.87;;;16.90;99.90;;;;;;5114825;28;20456;-60
2022/08/30 06:49:03;;;;;;;10.83;9.83;;;17.00;99.90;;;;;;5114122;28;20480;-60
2022/08/30 06:51:34;;;;;;;9.80;8.70;;;17.20;99.90;;;;;;5114320;28;20452;-60
2022/08/30 06:54:01;;;;;;;11.90;10.70;;;17.30;99.90;;;;;;5114201;28;20461;-60
2022/08/30 06:56:28;;;;;;;11.10;9.90;;;17.30;99.90;;;;;;5114140;28;20452;-59
2022/08/30 06:58:55;;;;;;;10.07;9.07;;;17.30;99.90;;;;;;5114325;28;20933;-60
2022/08/30 07:01:23;;;;;;;10.60;9.70;;;17.50;99.90;;;;;;5114225;28;20473;-59
2022/08/30 07:03:50;;;;;;;10.30;9.00;;;17.70;99.90;;;;;;5113968;28;20452;-59
2022/08/30 07:06:17;;;;;;;10.00;8.90;;;17.90;99.90;;;;;;5113871;28;20459;-60
2022/08/30 07:08:46;;;;;;;10.57;9.47;;;18.00;99.90;;;;;;5113899;28;20446;-60
2022/08/30 07:11:12;;;;;;;9.90;8.90;;;18.00;99.90;;;;;;5113812;28;20442;-60
2022/08/30 07:13:39;;;;;;;9.13;8.30;;;17.70;99.90;;;;;;5113441;28;20481;-60
2022/08/30 07:16:10;;;;;;;9.23;8.37;;;17.70;99.90;;;;;;5113693;28;20538;-60
2022/08/30 07:18:53;;;;;;;10.03;9.10;;;17.80;99.90;;;;;;5113940;28;20453;-60
2022/08/30 07:21:23;;;;;;;10.50;9.50;;;17.80;99.90;;;;;;5113602;28;20475;-61
2022/08/30 07:23:51;;;;;;;9.23;8.43;;;17.80;99.90;;;;;;5113590;28;21004;-60
2022/08/30 07:26:21;;;;;;;10.70;9.70;;;17.90;99.90;;;;;;5113687;28;20456;-64
2022/08/30 07:28:47;;;;;;;9.53;7.83;;;18.10;99.90;;;;;;5130623;27;20523;-61
2022/08/30 07:31:15;;;;;;;9.83;8.60;;;18.20;99.90;;;;;;5134024;27;20811;-57
2022/08/30 07:33:43;;;;;;;9.90;8.70;;;18.00;99.90;;;;;;5134302;27;20532;-60
2022/08/30 07:36:09;;;;;;;9.67;8.37;;;18.10;99.90;;;;;;5133866;27;20531;-60
2022/08/30 07:38:36;;;;;;;8.77;7.60;;;18.20;99.90;;;;;;5134121;27;20447;-59
2022/08/30 07:41:04;;;;;;;8.20;7.47;;;18.30;99.90;;;;;;5134020;27;20881;-61
2022/08/30 07:43:32;;;;;;;7.40;6.80;;;18.60;99.90;;;;;;5113331;27;20544;-63
2022/08/30 07:46:01;;;;;;;6.57;5.97;;;18.80;99.90;;;;;;5096955;28;20506;-63
2022/08/30 07:48:28;;;;;;;7.10;6.50;;;18.90;99.90;;;;;;5092602;28;20569;-65
2022/08/30 07:50:54;;;;;;;6.03;5.47;;;18.80;99.90;;;;;;5092848;28;20446;-63
2022/08/30 07:53:21;;;;;;;7.93;7.23;;;18.90;99.90;;;;;;5093250;28;20453;-65
2022/08/30 07:55:47;;;;;;;8.67;7.67;;;19.00;99.90;;;;;;5092685;28;20793;-64
2022/08/30 07:58:15;;;;;;;9.70;6.83;;;19.00;99.90;;;;;;5098387;28;20445;-63
2022/08/30 08:00:42;;;;;;;6.10;5.60;;;18.90;99.90;;;;;;5114692;28;20533;-61
2022/08/30 08:03:09;;;;;;;5.97;5.07;;;18.80;99.90;;;;;;5113134;27;20449;-62
2022/08/30 08:05:38;;;;;;;8.37;7.20;;;18.80;99.90;;;;;;5115269;28;20443;-61
2022/08/30 08:08:04;;;;;;;8.70;7.90;;;18.70;99.90;;;;;;5115560;28;20452;-63
2022/08/30 08:10:31;;;;;;;7.53;5.80;;;18.60;99.90;;;;;;5118391;28;20442;-64
2022/08/30 08:12:57;;;;;;;6.80;5.50;;;18.70;99.90;;;;;;5113007;28;20816;-63
2022/08/30 08:15:26;;;;;;;7.83;7.03;;;18.80;99.90;;;;;;5112859;28;20536;-63
2022/08/30 08:17:52;;;;;;;6.50;6.00;;;18.70;99.90;;;;;;5112857;28;20533;-64
2022/08/30 08:20:19;;;;;;;6.40;5.80;;;18.90;99.90;;;;;;5113028;28;20452;-61
2022/08/30 08:22:45;;;;;;;7.20;6.27;;;19.10;99.90;;;;;;5112888;28;20481;-64
2022/08/30 08:25:13;;;;;;;7.07;6.37;;;19.20;99.90;;;;;;5113463;28;20534;-61
2022/08/30 08:27:40;;;;;;;7.30;6.70;;;18.70;99.90;;;;;;5124256;27;20453;-59
2022/08/30 08:30:07;;;;;;;7.63;7.00;;;19.10;99.90;;;;;;5131086;27;20485;-59
2022/08/30 08:32:35;;;;;;;6.93;6.40;;;19.10;99.90;;;;;;5119786;27;20437;-61
2022/08/30 08:35:02;;;;;;;7.43;6.73;;;19.00;99.90;;;;;;5134194;27;20958;-61
2022/08/30 08:37:28;;;;;;;6.73;6.20;;;19.10;99.90;;;;;;5137414;27;20527;-63
2022/08/30 08:39:54;;;;;;;7.47;6.87;;;19.40;99.90;;;;;;5137269;27;20496;-61
2022/08/30 08:42:30;;;;;;;7.27;6.77;;;19.60;99.90;;;;;;5137087;27;21008;-62
2022/08/30 08:45:02;;;;;;;7.80;7.20;;;19.40;99.90;;;;;;5137089;27;20962;-62
2022/08/30 08:47:37;;;;;;;7.57;7.03;;;19.60;99.90;;;;;;5137198;27;20483;-62
2022/08/30 08:50:10;;;;;;;6.97;6.47;;;19.60;99.90;;;;;;5137244;27;20531;-60
2022/08/30 08:55:34;;;;;;;9.30;8.50;;;19.70;99.90;;;;;;5137319;27;20486;-62
2022/08/30 08:58:01;;;;;;;9.80;9.00;;;19.60;99.90;;;;;;5136853;27;20939;-62
2022/08/30 09:00:28;;;;;;;9.07;8.27;;;19.60;99.90;;;;;;5136895;27;20535;-61
2022/08/30 09:02:58;;;;;;;9.03;8.30;;;19.60;99.90;;;;;;5136487;27;20478;-61
2022/08/30 09:05:29;;;;;;;8.20;7.50;;;19.50;99.90;;;;;;5131282;27;20531;-60
2022/08/30 09:08:01;;;;;;;8.03;7.43;;;19.70;99.90;;;;;;5115871;28;20810;-60
2022/08/30 09:10:29;;;;;;;8.27;7.67;;;19.90;99.90;;;;;;5116390;28;20536;-60
2022/08/30 09:12:56;;;;;;;7.10;6.50;;;20.10;99.90;;;;;;5116114;28;21027;-60
2022/08/30 09:15:25;;;;;;;4.70;4.40;;;20.30;99.90;;;;;;5115977;28;20449;-61
2022/08/30 09:17:54;;;;;;;4.23;3.90;;;20.30;99.90;;;;;;5116071;28;20452;-61
2022/08/30 09:20:27;;;;;;;4.80;4.50;;;20.10;99.90;;;;;;5115885;28;20442;-60
2022/08/30 09:22:54;;;;;;;5.50;5.10;;;20.10;99.90;;;;;;5115894;28;20530;-57
2022/08/30 09:25:25;;;;;;;4.47;4.20;;;20.00;99.90;;;;;;5115951;28;20445;-56
2022/08/30 09:27:53;;;;;;;4.50;4.20;;;20.10;99.90;;;;;;5121206;27;20535;-58
2022/08/30 09:30:22;;;;;;;5.00;4.70;;;20.40;99.90;;;;;;5126479;27;20869;-57
2022/08/30 09:32:55;;;;;;;4.00;3.80;;;20.50;99.90;;;;;;5125280;27;20540;-57
2022/08/30 09:35:23;;;;;;;4.37;4.07;;;20.60;99.90;;;;;;5115702;27;21006;-61
2022/08/30 09:37:55;;;;;;;3.53;3.33;;;20.70;99.90;;;;;;5114607;28;20532;-60
2022/08/30 09:40:31;;;;;;;3.37;3.17;;;20.80;99.90;;;;;;5115581;28;20456;-61
2022/08/30 09:43:05;;;;;;;3.87;3.47;;;20.50;99.90;;;;;;5115453;28;20477;-60
2022/08/30 09:45:34;;;;;;;7.47;3.23;;;20.40;99.90;;;;;;5115271;28;21009;-60
2022/08/30 09:48:20;;;;;;;2.60;2.40;;;20.30;99.90;;;;;;5115312;28;20560;-61
2022/08/30 09:50:53;;;;;;;2.70;2.60;;;20.40;99.90;;;;;;5115472;28;20804;-59
2022/08/30 09:53:30;;;;;;;2.90;2.60;;;20.20;99.90;;;;;;5120469;27;20451;-61
2022/08/30 09:56:06;;;;;;;2.90;2.43;;;20.20;99.90;;;;;;5115576;28;20528;-61
2022/08/30 09:58:44;;;;;;;2.37;2.17;;;20.30;99.90;;;;;;5115378;28;20491;-61
2022/08/30 10:01:14;;;;;;;1.83;1.73;;;20.30;99.90;;;;;;5114959;28;20445;-60
2022/08/30 10:03:49;;;;;;;2.90;2.00;;;20.30;99.90;;;;;;5115003;28;20572;-59
2022/08/30 10:06:25;;;;;;;1.57;1.47;;;20.30;99.90;;;;;;5115278;28;20544;-59
2022/08/30 10:09:02;;;;;;;6.03;1.00;;;20.50;99.90;;;;;;5114924;28;20532;-62
2022/08/30 10:11:36;;;;;;;3.13;1.00;;;20.50;99.90;;;;;;5114992;28;20544;-63
2022/08/30 10:14:14;;;;;;;1.83;0.70;;;20.20;99.90;;;;;;5114908;28;20536;-65
2022/08/30 10:16:47;;;;;;;1.10;1.00;;;19.90;99.90;;;;;;5112823;28;20963;-61
2022/08/30 10:19:23;;;;;;;1.13;1.00;;;19.90;99.90;;;;;;5111730;28;20533;-59
2022/08/30 10:21:56;;;;;;;3.07;1.57;;;20.10;99.90;;;;;;5112750;27;20465;-62
2022/08/30 10:24:30;;;;;;;2.40;1.10;;;19.90;99.90;;;;;;5114628;28;20442;-62
2022/08/30 10:27:02;;;;;;;1.20;1.10;;;20.00;99.90;;;;;;5114594;28;20437;-60
2022/08/30 10:29:32;;;;;;;1.33;1.23;;;20.10;99.90;;;;;;5114867;28;20921;-63
2022/08/30 10:32:03;;;;;;;1.20;1.10;;;20.20;99.90;;;;;;5114806;28;20475;-63
2022/08/30 10:34:35;;;;;;;0.90;0.90;;;20.30;99.90;;;;;;5113918;28;20441;-62
2022/08/30 10:37:07;;;;;;;2.87;1.20;;;20.50;99.90;;;;;;5114019;28;20441;-66
2022/08/30 10:39:40;;;;;;;0.93;0.90;;;20.50;99.90;;;;;;5113850;28;20450;-61
2022/08/30 10:42:12;;;;;;;1.37;1.03;;;20.70;99.90;;;;;;5114416;28;20557;-63
2022/08/30 10:44:43;;;;;;;1.20;1.00;;;20.70;99.90;;;;;;5119463;27;20445;-62
2022/08/30 10:47:22;;;;;;;1.27;0.97;;;20.80;99.90;;;;;;5114234;28;20469;-60
2022/08/30 10:49:52;;;;;;;1.23;1.13;;;20.80;99.90;;;;;;5113686;28;21035;-63
2022/08/30 10:52:28;;;;;;;1.10;1.00;;;20.90;99.90;;;;;;5119527;27;20834;-60
2022/08/30 10:55:01;;;;;;;1.30;1.20;;;21.10;99.90;;;;;;5115401;27;20528;-61
2022/08/30 10:57:28;;;;;;;1.67;1.27;;;21.10;99.90;;;;;;5114028;28;20505;-60
2022/08/30 10:59:58;;;;;;;1.67;1.00;;;21.00;99.90;;;;;;5122146;27;20441;-61
2022/08/30 11:03:05;;;;;;;1.00;0.80;;;21.10;99.90;;;;;;5116140;27;20468;-62
2022/08/30 11:05:44;;;;;;;0.80;0.80;;;21.30;99.90;;;;;;5047362;28;20468;-61
2022/08/30 11:08:23;;;;;;;0.80;0.80;;;21.60;99.90;;;;;;5113434;28;20460;-62
2022/08/30 11:10:58;;;;;;;2.50;1.30;;;21.30;99.90;;;;;;5113594;28;20445;-60
2022/08/30 11:13:27;;;;;;;1.70;1.10;;;21.00;99.90;;;;;;5113762;28;20536;-60
2022/08/30 11:16:01;;;;;;;0.90;0.90;;;21.20;99.90;;;;;;5113601;28;20857;-61
2022/08/30 11:18:30;;;;;;;0.83;0.70;;;21.50;99.90;;;;;;5113703;28;20452;-62
2022/08/30 11:21:20;;;;;;;1.37;0.70;;;21.50;99.90;;;;;;5112773;28;20448;-61
2022/08/30 11:24:06;;;;;;;2.77;0.90;;;21.50;99.90;;;;;;5118814;27;20542;-59
2022/08/30 11:26:56;;;;;;;1.00;0.90;;;21.80;99.90;;;;;;5093036;28;20447;-64
2022/08/30 11:29:38;;;;;;;1.20;1.10;;;21.70;99.90;;;;;;5098742;27;20441;-64
2022/08/30 11:32:38;;;;;;;1.23;1.10;;;21.60;99.90;;;;;;5125145;27;20441;-61
2022/08/30 11:35:06;;;;;;;0.90;0.80;;;21.40;99.90;;;;;;5116545;27;20449;-62
2022/08/30 11:37:37;;;;;;;0.93;0.80;;;21.80;99.90;;;;;;5133863;27;20532;-61
2022/08/30 11:40:05;;;;;;;1.07;0.97;;;22.20;99.90;;;;;;5134215;27;20444;-63
2022/08/30 11:42:37;;;;;;;3.23;0.83;;;22.40;99.90;;;;;;5133875;27;20580;-62
2022/08/30 11:45:41;;;;;;;2.20;0.90;;;22.50;99.90;;;;;;5133965;27;20932;-61
2022/08/30 11:48:28;;;;;;;1.10;1.00;;;22.20;99.90;;;;;;5133448;27;21014;-63
2022/08/30 11:51:00;;;;;;;0.80;0.80;;;21.90;99.90;;;;;;5133985;27;20459;-61
2022/08/30 11:53:33;;;;;;;0.90;0.90;;;21.80;99.90;;;;;;5133828;27;20969;-61
2022/08/30 11:56:07;;;;;;;1.00;0.90;;;22.10;99.90;;;;;;5133925;27;20569;-64
2022/08/30 11:58:44;;;;;;;1.63;1.00;;;22.30;99.90;;;;;;5133561;27;20470;-59
2022/08/30 12:01:32;;;;;;;2.40;1.10;;;22.30;99.90;;;;;;5133366;27;20449;-59
2022/08/30 12:04:04;;;;;;;1.70;1.10;;;22.20;99.90;;;;;;5133447;27;20825;-63
2022/08/30 12:06:48;;;;;;;1.37;0.90;;;22.40;99.90;;;;;;5133765;27;20882;-61
2022/08/30 12:10:03;;;;;;;1.80;1.17;;;22.30;99.90;;;;;;5133829;28;20898;-64
2022/08/30 12:12:49;;;;;;;1.30;1.20;;;22.30;99.90;;;;;;5133698;27;20444;-62
2022/08/30 12:15:55;;;;;;;1.47;0.90;;;22.40;99.90;;;;;;5133269;28;20532;-62
2022/08/30 12:18:28;;;;;;;1.40;1.23;;;22.50;99.90;;;;;;5133412;27;20458;-61
2022/08/30 12:20:59;;;;;;;1.27;1.17;;;22.50;99.90;;;;;;5128868;28;20456;-61
2022/08/30 12:23:35;;;;;;;0.87;0.87;;;22.40;99.90;;;;;;5115264;28;20484;-59
2022/08/30 12:26:30;;;;;;;1.77;1.10;;;22.10;99.90;;;;;;5130553;28;20446;-58
2022/08/30 12:29:13;;;;;;;1.37;0.93;;;22.20;99.90;;;;;;5131075;27;20808;-58
2022/08/30 12:31:43;;;;;;;1.50;1.40;;;22.20;99.90;;;;;;5133438;28;20857;-59
2022/08/30 12:34:18;;;;;;;1.23;1.10;;;22.20;99.90;;;;;;5133021;28;20487;-59
2022/08/30 12:36:52;;;;;;;1.80;1.30;;;22.50;99.90;;;;;;5133168;28;21022;-59
2022/08/30 12:39:23;;;;;;;1.10;1.00;;;22.60;99.90;;;;;;5133490;28;20444;-59
2022/08/30 12:41:50;;;;;;;1.00;0.90;;;22.40;99.90;;;;;;5133102;28;20440;-59
2022/08/30 12:44:21;;;;;;;1.07;0.97;;;22.20;99.90;;;;;;5133265;28;20495;-59
2022/08/30 12:46:50;;;;;;;1.13;1.03;;;22.40;99.90;;;;;;5132800;28;20535;-59
2022/08/30 12:49:18;;;;;;;1.47;1.37;;;22.70;99.90;;;;;;5133380;28;20558;-59
2022/08/30 12:51:45;;;;;;;1.03;0.93;;;22.80;99.90;;;;;;5132951;28;20452;-59
2022/08/30 12:54:17;;;;;;;1.83;1.20;;;22.70;99.90;;;;;;5132997;28;20448;-59
2022/08/30 12:56:55;;;;;;;2.60;1.50;;;22.60;99.90;;;;;;5133079;28;20451;-59
2022/08/30 12:59:45;;;;;;;1.50;1.40;;;22.70;99.90;;;;;;5133313;28;20444;-59
2022/08/30 13:02:16;;;;;;;1.20;1.07;;;22.90;99.90;;;;;;5133108;28;20875;-59